Time;durP1;ratioP1;P1;durP2;ratioP2;P2;SDS_P1;SDS_P2;PMS_P1;PMS_P2;Temp;Humidity;BMP_temperature;BMP_pressure;BME280_temperature;BME280_humidity;BME280_pressure;Samples;Min_cycle;Max_cycle;Signal;HPM_P1;HPM_P2
2021/03/21 00:00:11;;;;;;;;;4.33;4.33;;;;;;;;5048050;27;112614;-76
2021/03/21 00:02:37;;;;;;;;;3.33;3.33;;;;;;;;5046134;27;113577;-78
2021/03/21 00:05:03;;;;;;;;;4.33;4.33;;;;;;;;5046687;27;114206;-76
2021/03/21 00:07:29;;;;;;;;;5.00;4.00;;;;;;;;5048703;27;111886;-77
2021/03/21 00:09:55;;;;;;;;;5.00;4.00;;;;;;;;5048694;27;114090;-76
2021/03/21 00:12:21;;;;;;;;;5.00;5.00;;;;;;;;5047884;27;113982;-77
2021/03/21 00:14:47;;;;;;;;;6.33;4.00;;;;;;;;5048102;27;112607;-77
2021/03/21 00:17:14;;;;;;;;;8.00;4.33;;;;;;;;5048484;27;113365;-78
2021/03/21 00:19:40;;;;;;;;;4.67;4.33;;;;;;;;5048047;27;112659;-74
2021/03/21 00:22:06;;;;;;;;;7.00;5.00;;;;;;;;5045579;27;113627;-77
2021/03/21 00:24:31;;;;;;;;;4.67;2.00;;;;;;;;5044246;27;114017;-77
2021/03/21 00:26:57;;;;;;;;;4.00;4.00;;;;;;;;5046224;27;111840;-76
2021/03/21 00:29:23;;;;;;;;;4.67;4.00;;;;;;;;5046732;27;113370;-77
2021/03/21 00:31:49;;;;;;;;;7.00;4.00;;;;;;;;5044648;27;114030;-76
2021/03/21 00:34:16;;;;;;;;;4.67;3.33;;;;;;;;5048807;27;112087;-77
2021/03/21 00:36:42;;;;;;;;;9.00;7.00;;;;;;;;5044941;27;113983;-75
2021/03/21 00:39:09;;;;;;;;;12.33;6.00;;;;;;;;5050473;27;111952;-75
2021/03/21 00:41:35;;;;;;;;;9.00;9.00;;;;;;;;5045735;27;112698;-75
2021/03/21 00:44:01;;;;;;;;;9.67;8.33;;;;;;;;5046485;27;114142;-75
2021/03/21 00:46:27;;;;;;;;;7.67;6.00;;;;;;;;5046122;27;111795;-75
2021/03/21 00:48:53;;;;;;;;;7.00;6.00;;;;;;;;5045739;27;113960;-76
2021/03/21 00:51:21;;;;;;;;;9.67;9.00;;;;;;;;5048090;27;115886;-76
2021/03/21 00:53:47;;;;;;;;;13.33;7.00;;;;;;;;5048537;27;112018;-76
2021/03/21 00:56:21;;;;;;;;;9.00;9.00;;;;;;;;5052053;27;112661;-75
2021/03/21 00:58:47;;;;;;;;;7.00;7.00;;;;;;;;5049919;27;114156;-75
2021/03/21 01:01:13;;;;;;;;;10.00;10.00;;;;;;;;5047728;27;113437;-77
2021/03/21 01:03:39;;;;;;;;;11.00;10.67;;;;;;;;5044457;27;114393;-76
2021/03/21 01:06:09;;;;;;;;;14.00;11.00;;;;;;;;5047088;27;111971;-75
2021/03/21 01:08:37;;;;;;;;;14.00;12.33;;;;;;;;5046366;27;113939;-76
2021/03/21 01:11:05;;;;;;;;;11.67;11.00;;;;;;;;5048889;27;114275;-76
2021/03/21 01:13:31;;;;;;;;;11.00;11.00;;;;;;;;5048232;27;112784;-77
2021/03/21 01:15:57;;;;;;;;;14.00;10.00;;;;;;;;5049151;27;113524;-75
2021/03/21 01:18:24;;;;;;;;;14.33;14.00;;;;;;;;5049166;27;114226;-75
2021/03/21 01:20:51;;;;;;;;;18.00;17.00;;;;;;;;5051863;27;112392;-75
2021/03/21 01:23:17;;;;;;;;;19.00;14.33;;;;;;;;5049690;27;114880;-75
2021/03/21 01:25:44;;;;;;;;;21.00;15.00;;;;;;;;5047482;27;112071;-75
2021/03/21 01:28:18;;;;;;;;;18.67;17.00;;;;;;;;5047062;27;114258;-76
2021/03/21 01:30:44;;;;;;;;;14.33;13.33;;;;;;;;5046269;27;114545;-76
2021/03/21 01:33:10;;;;;;;;;11.00;11.00;;;;;;;;5050566;27;111869;-75
2021/03/21 01:35:36;;;;;;;;;15.00;14.00;;;;;;;;5048286;27;113974;-76
2021/03/21 01:38:02;;;;;;;;;14.00;14.00;;;;;;;;5049011;27;114082;-75
2021/03/21 01:40:28;;;;;;;;;18.67;14.00;;;;;;;;5048679;27;112190;-75
2021/03/21 01:42:55;;;;;;;;;18.00;16.33;;;;;;;;5051213;27;113726;-75
2021/03/21 01:45:35;;;;;;;;;14.67;14.67;;;;;;;;5050016;27;112061;-74
2021/03/21 01:48:02;;;;;;;;;16.33;14.33;;;;;;;;5049371;27;114096;-75
2021/03/21 01:50:31;;;;;;;;;20.00;13.67;;;;;;;;5047744;27;114321;-74
2021/03/21 01:52:57;;;;;;;;;21.00;14.67;;;;;;;;5048656;27;111896;-78
2021/03/21 01:55:23;;;;;;;;;17.00;15.33;;;;;;;;5049058;27;113551;-76
2021/03/21 01:57:50;;;;;;;;;15.00;14.00;;;;;;;;5046538;27;114575;-74
2021/03/21 02:00:17;;;;;;;;;20.00;16.67;;;;;;;;5049687;27;112147;-75
2021/03/21 02:02:43;;;;;;;;;22.33;18.00;;;;;;;;5046362;27;113466;-77
2021/03/21 02:05:10;;;;;;;;;17.00;14.00;;;;;;;;5052656;27;114278;-75
2021/03/21 02:07:47;;;;;;;;;17.33;14.67;;;;;;;;5047475;27;113722;-76
2021/03/21 02:10:18;;;;;;;;;13.00;13.00;;;;;;;;5046295;27;113787;-75
2021/03/21 02:12:50;;;;;;;;;17.33;14.00;;;;;;;;5048974;27;112288;-75
2021/03/21 02:15:25;;;;;;;;;19.00;17.33;;;;;;;;5047154;27;113461;-73
2021/03/21 02:17:55;;;;;;;;;18.67;15.00;;;;;;;;5048497;27;114173;-75
2021/03/21 02:20:39;;;;;;;;;19.00;17.00;;;;;;;;5047940;27;112316;-76
2021/03/21 02:23:10;;;;;;;;;20.67;16.67;;;;;;;;5050510;27;113469;-75
2021/03/21 02:25:54;;;;;;;;;21.00;17.00;;;;;;;;5045795;27;114060;-76
2021/03/21 02:28:47;;;;;;;;;21.67;16.67;;;;;;;;5020829;27;112251;-76
2021/03/21 02:31:15;;;;;;;;;13.67;11.00;;;;;;;;5012123;27;115145;-76
2021/03/21 02:33:47;;;;;;;;;18.00;15.00;;;;;;;;5046663;27;111944;-75
2021/03/21 02:36:17;;;;;;;;;13.00;13.00;;;;;;;;5046319;27;113991;-75
2021/03/21 02:38:46;;;;;;;;;18.00;13.33;;;;;;;;5048462;27;112954;-76
2021/03/21 02:41:14;;;;;;;;;18.00;16.33;;;;;;;;5046498;27;112560;-76
2021/03/21 02:43:42;;;;;;;;;27.33;18.00;;;;;;;;5050367;27;114013;-75
2021/03/21 02:46:11;;;;;;;;;20.00;17.00;;;;;;;;5049792;27;114457;-76
2021/03/21 02:48:40;;;;;;;;;16.67;12.00;;;;;;;;5051885;27;111950;-75
2021/03/21 02:51:08;;;;;;;;;15.00;14.00;;;;;;;;5050810;27;114549;-76
2021/03/21 02:53:38;;;;;;;;;18.00;15.33;;;;;;;;5049206;27;111904;-76
2021/03/21 02:56:06;;;;;;;;;21.00;13.67;;;;;;;;5052123;27;113654;-74
2021/03/21 02:58:35;;;;;;;;;18.00;14.00;;;;;;;;5050126;27;114367;-74
2021/03/21 03:01:03;;;;;;;;;16.33;14.67;;;;;;;;5049333;27;112647;-76
2021/03/21 03:03:30;;;;;;;;;15.33;10.67;;;;;;;;5047252;27;113970;-74
2021/03/21 03:05:59;;;;;;;;;20.33;19.33;;;;;;;;5046655;27;114350;-76
2021/03/21 03:08:28;;;;;;;;;17.67;16.00;;;;;;;;5047760;27;111849;-75
2021/03/21 03:10:55;;;;;;;;;17.00;14.00;;;;;;;;5052520;27;113632;-76
2021/03/21 03:13:22;;;;;;;;;19.33;17.33;;;;;;;;5047309;27;111812;-76
2021/03/21 03:15:49;;;;;;;;;14.00;14.00;;;;;;;;5047719;27;113594;-74
2021/03/21 03:18:23;;;;;;;;;16.00;13.67;;;;;;;;5045260;27;114105;-75
2021/03/21 03:20:50;;;;;;;;;19.00;15.33;;;;;;;;5047090;27;111929;-75
2021/03/21 03:23:23;;;;;;;;;24.33;17.33;;;;;;;;5047841;27;114193;-74
2021/03/21 03:25:53;;;;;;;;;16.33;13.33;;;;;;;;5046370;27;114014;-74
2021/03/21 03:28:21;;;;;;;;;20.00;17.33;;;;;;;;5048053;27;111856;-74
2021/03/21 03:30:51;;;;;;;;;16.67;15.33;;;;;;;;5045065;27;113632;-75
2021/03/21 03:33:18;;;;;;;;;18.33;17.67;;;;;;;;5050746;27;114138;-77
2021/03/21 03:35:44;;;;;;;;;20.00;16.00;;;;;;;;5045881;27;113788;-76
2021/03/21 03:38:10;;;;;;;;;15.33;15.33;;;;;;;;5048396;27;114249;-74
2021/03/21 03:40:38;;;;;;;;;14.00;13.00;;;;;;;;5049253;27;112071;-75
2021/03/21 03:43:09;;;;;;;;;13.67;10.67;;;;;;;;5048407;27;115117;-74
2021/03/21 03:45:38;;;;;;;;;16.67;13.33;;;;;;;;5044318;27;114250;-75
2021/03/21 03:48:08;;;;;;;;;17.00;16.33;;;;;;;;5048982;27;111893;-75
2021/03/21 03:50:48;;;;;;;;;17.00;14.67;;;;;;;;5044791;27;113542;-74
2021/03/21 03:53:19;;;;;;;;;14.67;14.00;;;;;;;;5045148;27;114625;-75
2021/03/21 03:55:48;;;;;;;;;13.33;13.33;;;;;;;;5051272;27;112055;-74
2021/03/21 03:58:17;;;;;;;;;15.33;13.00;;;;;;;;5045011;27;114707;-74
2021/03/21 04:00:48;;;;;;;;;14.00;14.00;;;;;;;;5048164;27;111919;-74
2021/03/21 04:03:17;;;;;;;;;18.33;16.00;;;;;;;;5045246;27;113604;-76
2021/03/21 04:05:47;;;;;;;;;13.33;13.33;;;;;;;;5047348;27;114190;-74
2021/03/21 04:08:19;;;;;;;;;17.67;16.00;;;;;;;;5045442;27;111819;-76
2021/03/21 04:10:48;;;;;;;;;16.00;14.67;;;;;;;;5048150;27;114249;-75
2021/03/21 04:13:16;;;;;;;;;13.00;13.00;;;;;;;;5044018;27;114198;-75
2021/03/21 04:15:47;;;;;;;;;18.00;15.33;;;;;;;;5047883;27;111929;-76
2021/03/21 04:18:17;;;;;;;;;18.67;15.33;;;;;;;;5047847;27;113532;-75
2021/03/21 04:20:46;;;;;;;;;16.67;12.00;;;;;;;;5047477;27;111793;-76
2021/03/21 04:23:14;;;;;;;;;17.00;16.00;;;;;;;;5044525;27;113899;-74
2021/03/21 04:25:43;;;;;;;;;16.00;13.33;;;;;;;;5047681;27;114132;-76
2021/03/21 04:28:14;;;;;;;;;14.00;13.00;;;;;;;;5044276;27;112256;-75
2021/03/21 04:30:42;;;;;;;;;16.00;13.50;;;;;;;;5045348;27;113594;-75
2021/03/21 04:33:10;;;;;;;;;13.33;10.00;;;;;;;;5047163;27;113965;-76
2021/03/21 04:35:39;;;;;;;;;18.67;13.00;;;;;;;;5048751;27;111908;-76
2021/03/21 04:38:14;;;;;;;;;12.33;10.00;;;;;;;;5044738;27;113563;-76
2021/03/21 04:40:41;;;;;;;;;16.75;12.50;;;;;;;;5051550;27;113888;-76
2021/03/21 04:43:09;;;;;;;;;13.50;13.50;;;;;;;;5049673;27;113606;-76
2021/03/21 04:45:39;;;;;;;;;18.25;15.50;;;;;;;;5051813;27;114597;-75
2021/03/21 04:48:09;;;;;;;;;12.00;9.00;;;;;;;;5048156;27;112090;-75
2021/03/21 04:50:36;;;;;;;;;13.75;10.50;;;;;;;;5048859;27;113639;-75
2021/03/21 04:53:05;;;;;;;;;13.00;12.00;;;;;;;;5050953;27;114419;-77
2021/03/21 04:55:32;;;;;;;;;12.00;12.00;;;;;;;;5049004;27;111935;-77
2021/03/21 04:58:01;;;;;;;;;15.00;13.00;;;;;;;;5050604;27;113454;-76
2021/03/21 05:00:28;;;;;;;;;12.00;12.00;;;;;;;;5054309;27;114151;-76
2021/03/21 05:02:58;;;;;;;;;15.25;12.75;;;;;;;;5049724;27;113534;-77
2021/03/21 05:05:27;;;;;;;;;13.75;10.50;;;;;;;;5049776;27;114431;-76
2021/03/21 05:07:54;;;;;;;;;16.50;12.25;;;;;;;;5049362;27;112426;-75
2021/03/21 05:10:23;;;;;;;;;10.75;9.00;;;;;;;;5049314;27;113507;-75
2021/03/21 05:12:51;;;;;;;;;8.33;8.33;;;;;;;;5055414;27;114032;-74
2021/03/21 05:15:21;;;;;;;;;14.75;12.00;;;;;;;;5052363;27;112079;-75
2021/03/21 05:17:53;;;;;;;;;11.75;11.75;;;;;;;;5053061;27;113011;-76
2021/03/21 05:20:23;;;;;;;;;10.25;10.25;;;;;;;;5049460;27;114337;-75
2021/03/21 05:22:53;;;;;;;;;10.75;9.50;;;;;;;;5054550;27;112327;-75
2021/03/21 05:25:22;;;;;;;;;12.25;12.00;;;;;;;;5049108;27;114311;-75
2021/03/21 05:27:53;;;;;;;;;12.50;12.00;;;;;;;;5049831;27;111937;-76
2021/03/21 05:30:22;;;;;;;;;13.25;11.50;;;;;;;;5048914;27;113989;-76
2021/03/21 05:32:50;;;;;;;;;9.75;9.00;;;;;;;;5049392;27;114085;-75
2021/03/21 05:35:18;;;;;;;;;11.67;11.67;;;;;;;;5047979;27;112015;-75
2021/03/21 05:37:50;;;;;;;;;14.33;12.33;;;;;;;;5050780;27;113502;-75
2021/03/21 05:40:35;;;;;;;;;12.67;12.00;;;;;;;;5047856;27;113592;-74
2021/03/21 05:43:25;;;;;;;;;9.00;9.00;;;;;;;;5047600;27;112212;-74
2021/03/21 05:46:15;;;;;;;;;16.00;9.67;;;;;;;;5052321;27;114032;-75
2021/03/21 05:48:59;;;;;;;;;15.00;9.67;;;;;;;;5047562;27;111886;-74
2021/03/21 05:51:55;;;;;;;;;10.33;10.33;;;;;;;;5048086;27;113578;-75
2021/03/21 05:54:42;;;;;;;;;12.00;11.00;;;;;;;;4973718;28;114343;-76
2021/03/21 05:57:28;;;;;;;;;13.00;12.67;;;;;;;;5043724;27;112276;-77
2021/03/21 06:00:01;;;;;;;;;10.33;9.00;;;;;;;;5049408;27;114069;-76
2021/03/21 06:02:42;;;;;;;;;9.00;8.25;;;;;;;;5046862;27;114236;-76
2021/03/21 06:05:26;;;;;;;;;13.50;11.00;;;;;;;;5015800;27;111993;-77
2021/03/21 06:08:07;;;;;;;;;17.50;12.25;;;;;;;;5049117;27;113469;-75
2021/03/21 06:10:46;;;;;;;;;7.50;6.00;;;;;;;;5048558;27;114369;-77
2021/03/21 06:13:19;;;;;;;;;9.25;8.25;;;;;;;;5047209;27;113648;-77
2021/03/21 06:16:15;;;;;;;;;12.00;9.00;;;;;;;;5049029;27;114072;-74
2021/03/21 06:18:46;;;;;;;;;10.25;9.00;;;;;;;;4983378;28;112384;-74
2021/03/21 06:21:27;;;;;;;;;11.00;8.75;;;;;;;;5036865;27;113558;-76
2021/03/21 06:24:01;;;;;;;;;9.00;9.00;;;;;;;;5047846;27;113312;-75
2021/03/21 06:26:32;;;;;;;;;12.00;9.00;;;;;;;;5049687;27;113556;-73
2021/03/21 06:29:08;;;;;;;;;12.00;10.33;;;;;;;;5047555;27;114064;-75
2021/03/21 06:31:45;;;;;;;;;14.33;8.00;;;;;;;;5042123;27;114153;-75
2021/03/21 06:34:19;;;;;;;;;9.33;9.00;;;;;;;;5051111;27;112329;-75
2021/03/21 06:36:48;;;;;;;;;9.00;6.00;;;;;;;;5049532;27;113390;-67
2021/03/21 06:39:30;;;;;;;;;13.25;9.25;;;;;;;;5045605;27;112510;-66
2021/03/21 06:42:09;;;;;;;;;13.67;12.00;;;;;;;;5044858;27;114851;-66
2021/03/21 06:44:50;;;;;;;;;6.00;5.67;;;;;;;;5044338;27;114076;-67
2021/03/21 06:47:44;;;;;;;;;12.00;12.00;;;;;;;;5042092;27;112278;-67
2021/03/21 06:50:22;;;;;;;;;12.25;9.75;;;;;;;;5044103;27;113878;-68
2021/03/21 06:52:55;;;;;;;;;12.67;9.33;;;;;;;;5045824;27;114305;-69
2021/03/21 06:55:32;;;;;;;;;8.00;8.00;;;;;;;;5045710;27;112184;-68
2021/03/21 06:58:18;;;;;;;;;15.33;9.33;;;;;;;;5050631;27;114257;-69
2021/03/21 07:01:00;;;;;;;;;12.33;11.67;;;;;;;;5026738;27;112218;-70
2021/03/21 07:03:48;;;;;;;;;9.00;8.00;;;;;;;;5046200;27;112327;-69
2021/03/21 07:06:31;;;;;;;;;9.00;8.00;;;;;;;;5048171;27;115099;-70
2021/03/21 07:09:08;;;;;;;;;9.00;9.00;;;;;;;;5048161;27;113738;-68
2021/03/21 07:12:01;;;;;;;;;11.67;10.00;;;;;;;;5048244;27;113852;-69
2021/03/21 07:14:47;;;;;;;;;13.33;9.00;;;;;;;;5013825;27;114255;-70
2021/03/21 07:17:41;;;;;;;;;9.00;7.33;;;;;;;;5046389;27;113212;-71
2021/03/21 07:20:26;;;;;;;;;9.00;9.00;;;;;;;;5003446;27;113036;-71
2021/03/21 07:23:22;;;;;;;;;13.33;9.33;;;;;;;;5045833;27;113466;-72
2021/03/21 07:26:03;;;;;;;;;9.67;9.67;;;;;;;;5043906;27;113693;-73
2021/03/21 07:28:52;;;;;;;;;9.00;9.00;;;;;;;;5043076;27;114111;-64
2021/03/21 07:31:27;;;;;;;;;12.00;10.67;;;;;;;;5043585;27;112383;-67
2021/03/21 07:34:05;;;;;;;;;11.33;7.33;;;;;;;;5045718;27;113695;-66
2021/03/21 07:36:33;;;;;;;;;9.33;6.67;;;;;;;;5051608;27;114164;-69
2021/03/21 07:39:18;;;;;;;;;10.00;9.00;;;;;;;;5047132;27;111854;-68
2021/03/21 07:41:53;;;;;;;;;12.67;10.00;;;;;;;;5044448;27;113548;-68
2021/03/21 07:44:37;;;;;;;;;12.00;8.67;;;;;;;;5045745;27;113079;-68
2021/03/21 07:47:18;;;;;;;;;7.33;7.33;;;;;;;;5044068;27;113825;-67
2021/03/21 07:50:04;;;;;;;;;12.00;10.00;;;;;;;;5011601;27;114423;-67
2021/03/21 07:52:44;;;;;;;;;8.33;8.00;;;;;;;;5045541;27;111990;-66
2021/03/21 07:55:13;;;;;;;;;14.67;13.00;;;;;;;;5042671;27;113463;-66
2021/03/21 07:57:46;;;;;;;;;12.33;8.33;;;;;;;;5043024;27;114065;-64
2021/03/21 08:00:14;;;;;;;;;8.00;8.00;;;;;;;;5042010;27;114054;-67
2021/03/21 08:02:40;;;;;;;;;11.33;10.67;;;;;;;;5045643;27;113593;-66
2021/03/21 08:05:08;;;;;;;;;12.67;9.67;;;;;;;;5044850;27;115182;-69
2021/03/21 08:07:36;;;;;;;;;11.33;9.33;;;;;;;;5045778;27;112024;-68
2021/03/21 08:10:15;;;;;;;;;13.00;11.67;;;;;;;;5042167;27;114233;-69
2021/03/21 08:12:44;;;;;;;;;9.33;9.33;;;;;;;;5043086;27;113135;-71
2021/03/21 08:15:14;;;;;;;;;12.33;12.33;;;;;;;;5043374;27;113684;-70
2021/03/21 08:17:42;;;;;;;;;10.67;10.33;;;;;;;;5043074;27;114191;-68
2021/03/21 08:20:15;;;;;;;;;13.00;10.00;;;;;;;;5048289;27;112003;-69
2021/03/21 08:22:41;;;;;;;;;10.00;9.33;;;;;;;;5042804;27;113569;-69
2021/03/21 08:25:24;;;;;;;;;13.00;13.00;;;;;;;;5044901;27;114431;-67
2021/03/21 08:27:52;;;;;;;;;7.00;7.00;;;;;;;;5048376;27;111946;-68
2021/03/21 08:30:19;;;;;;;;;10.67;10.00;;;;;;;;5049338;27;112879;-68
2021/03/21 08:32:53;;;;;;;;;9.00;6.00;;;;;;;;5045713;27;112490;-69
2021/03/21 08:35:21;;;;;;;;;10.00;10.00;;;;;;;;5046507;27;114526;-68
2021/03/21 08:37:48;;;;;;;;;8.00;8.00;;;;;;;;5049526;27;113421;-70
2021/03/21 08:40:18;;;;;;;;;8.00;8.00;;;;;;;;5045438;27;112340;-69
2021/03/21 08:42:45;;;;;;;;;10.00;9.00;;;;;;;;5045478;27;113955;-68
2021/03/21 08:45:30;;;;;;;;;10.75;10.75;;;;;;;;5049513;27;114240;-69
2021/03/21 08:47:57;;;;;;;;;11.75;10.00;;;;;;;;5046731;27;113289;-68
2021/03/21 08:50:28;;;;;;;;;11.00;10.25;;;;;;;;5045668;27;113856;-69
2021/03/21 08:52:54;;;;;;;;;8.00;7.00;;;;;;;;5050903;27;113683;-67
2021/03/21 08:55:25;;;;;;;;;10.00;9.75;;;;;;;;5047207;27;113709;-70
2021/03/21 08:57:51;;;;;;;;;9.00;8.00;;;;;;;;5046777;27;114207;-71
2021/03/21 09:00:24;;;;;;;;;10.00;10.00;;;;;;;;5048392;27;111942;-73
2021/03/21 09:02:50;;;;;;;;;14.25;12.25;;;;;;;;5047726;27;113644;-74
2021/03/21 09:05:18;;;;;;;;;11.00;10.00;;;;;;;;5044442;27;114337;-73
2021/03/21 09:07:45;;;;;;;;;16.00;14.25;;;;;;;;5050377;27;112581;-76
2021/03/21 09:10:21;;;;;;;;;11.50;8.00;;;;;;;;5046878;27;113735;-75
2021/03/21 09:12:49;;;;;;;;;10.75;10.00;;;;;;;;5047017;27;114018;-72
2021/03/21 09:15:36;;;;;;;;;10.25;9.25;;;;;;;;5052602;27;112467;-72
2021/03/21 09:18:07;;;;;;;;;11.75;9.00;;;;;;;;5048413;27;114013;-72
2021/03/21 09:20:34;;;;;;;;;13.50;13.25;;;;;;;;5046510;27;112011;-72
2021/03/21 09:23:20;;;;;;;;;18.25;12.25;;;;;;;;5049127;27;113495;-69
2021/03/21 09:25:47;;;;;;;;;12.75;12.75;;;;;;;;5048950;27;117057;-70
2021/03/21 09:28:14;;;;;;;;;11.00;10.75;;;;;;;;5050085;27;112115;-73
2021/03/21 09:30:42;;;;;;;;;16.25;13.00;;;;;;;;5045590;27;113779;-76
2021/03/21 09:33:10;;;;;;;;;9.50;9.00;;;;;;;;5045680;27;114103;-74
2021/03/21 09:35:40;;;;;;;;;13.00;10.00;;;;;;;;5049147;27;112007;-78
2021/03/21 09:38:10;;;;;;;;;9.00;8.50;;;;;;;;5049505;27;114128;-76
2021/03/21 09:40:38;;;;;;;;;10.50;10.50;;;;;;;;5046001;27;112022;-74
2021/03/21 09:43:09;;;;;;;;;10.50;8.75;;;;;;;;5049311;27;113570;-75
2021/03/21 09:45:36;;;;;;;;;9.00;9.00;;;;;;;;5045348;27;114190;-75
2021/03/21 09:48:02;;;;;;;;;9.75;9.25;;;;;;;;5049175;27;111996;-75
2021/03/21 09:50:44;;;;;;;;;10.00;10.00;;;;;;;;5046388;27;112983;-76
2021/03/21 09:53:37;;;;;;;;;11.25;9.00;;;;;;;;5044139;27;114234;-70
2021/03/21 09:56:10;;;;;;;;;10.75;9.00;;;;;;;;5048809;27;112286;-71
2021/03/21 09:58:42;;;;;;;;;11.50;8.75;;;;;;;;5049399;27;113619;-71
2021/03/21 10:01:14;;;;;;;;;12.50;10.75;;;;;;;;5047512;27;112928;-72
2021/03/21 10:03:41;;;;;;;;;9.00;9.00;;;;;;;;5042179;27;113635;-72
2021/03/21 10:06:10;;;;;;;;;11.00;9.25;;;;;;;;5045286;27;115783;-74
2021/03/21 10:08:51;;;;;;;;;10.25;10.25;;;;;;;;5045782;27;112264;-73
2021/03/21 10:11:23;;;;;;;;;12.50;11.00;;;;;;;;5046363;27;113756;-73
2021/03/21 10:13:49;;;;;;;;;11.50;9.50;;;;;;;;5045705;27;114606;-74
2021/03/21 10:16:29;;;;;;;;;11.50;11.50;;;;;;;;5052758;27;113294;-73
2021/03/21 10:18:56;;;;;;;;;10.50;10.00;;;;;;;;5048625;27;113852;-75
2021/03/21 10:21:29;;;;;;;;;12.00;11.00;;;;;;;;5051204;27;114003;-78
2021/03/21 10:24:13;;;;;;;;;12.25;11.00;;;;;;;;5046525;27;114536;-75
2021/03/21 10:27:02;;;;;;;;;14.50;11.25;;;;;;;;5045440;27;114324;-72
2021/03/21 10:29:45;;;;;;;;;11.00;11.00;;;;;;;;5047502;27;111935;-72
2021/03/21 10:32:22;;;;;;;;;15.00;12.25;;;;;;;;5046067;27;114748;-72
2021/03/21 10:34:49;;;;;;;;;9.00;9.00;;;;;;;;5043995;27;114755;-72
2021/03/21 10:37:30;;;;;;;;;13.75;11.25;;;;;;;;5045857;27;112157;-71
2021/03/21 10:39:57;;;;;;;;;10.00;10.00;;;;;;;;5044731;27;114402;-75
2021/03/21 10:42:40;;;;;;;;;13.00;11.50;;;;;;;;5041792;27;114920;-71
2021/03/21 10:45:07;;;;;;;;;12.75;10.00;;;;;;;;5047536;27;112492;-72
2021/03/21 10:47:48;;;;;;;;;14.25;11.75;;;;;;;;5045411;27;114079;-70
2021/03/21 10:50:35;;;;;;;;;12.50;10.50;;;;;;;;5043431;27;112306;-71
2021/03/21 10:53:28;;;;;;;;;13.75;12.75;;;;;;;;5046470;27;113591;-71
2021/03/21 10:56:03;;;;;;;;;12.75;10.25;;;;;;;;5013949;27;114051;-72
2021/03/21 10:58:31;;;;;;;;;12.00;10.50;;;;;;;;5048301;27;112582;-73
2021/03/21 11:01:15;;;;;;;;;11.75;10.00;;;;;;;;5046827;27;114056;-73
2021/03/21 11:03:42;;;;;;;;;11.25;9.75;;;;;;;;5045604;27;113743;-73
2021/03/21 11:06:14;;;;;;;;;11.00;11.00;;;;;;;;5046453;27;112352;-71
2021/03/21 11:08:40;;;;;;;;;11.25;10.00;;;;;;;;5048812;27;113210;-72
2021/03/21 11:11:15;;;;;;;;;12.75;12.75;;;;;;;;5048807;27;111985;-72
2021/03/21 11:13:41;;;;;;;;;12.50;12.50;;;;;;;;5045692;27;113636;-73
2021/03/21 11:16:09;;;;;;;;;14.00;13.25;;;;;;;;5048535;27;114903;-73
2021/03/21 11:18:35;;;;;;;;;12.25;11.75;;;;;;;;5045688;27;111874;-73
2021/03/21 11:21:05;;;;;;;;;11.50;11.00;;;;;;;;5048448;27;113699;-72
2021/03/21 11:23:36;;;;;;;;;11.00;11.00;;;;;;;;5045621;27;114511;-76
2021/03/21 11:26:17;;;;;;;;;12.25;12.00;;;;;;;;5049076;27;112005;-75
2021/03/21 11:28:45;;;;;;;;;10.00;10.00;;;;;;;;5049061;27;113498;-73
2021/03/21 11:31:15;;;;;;;;;12.00;11.25;;;;;;;;5051510;27;112652;-73
2021/03/21 11:33:42;;;;;;;;;11.00;9.75;;;;;;;;5044044;27;113515;-75
2021/03/21 11:36:10;;;;;;;;;13.00;12.50;;;;;;;;5038451;27;113766;-75
2021/03/21 11:38:39;;;;;;;;;16.00;12.50;;;;;;;;5045699;27;112593;-74
2021/03/21 11:41:17;;;;;;;;;15.25;12.75;;;;;;;;5043561;27;114136;-74
2021/03/21 11:43:45;;;;;;;;;11.50;11.50;;;;;;;;5043591;27;113551;-75
2021/03/21 11:46:12;;;;;;;;;15.75;12.25;;;;;;;;5046211;27;111892;-75
2021/03/21 11:48:39;;;;;;;;;16.00;12.00;;;;;;;;5044262;27;114013;-75
2021/03/21 11:51:06;;;;;;;;;11.50;10.00;;;;;;;;5050035;27;113985;-72
2021/03/21 11:53:35;;;;;;;;;9.75;9.00;;;;;;;;5043662;27;114148;-75
2021/03/21 11:56:04;;;;;;;;;14.75;10.25;;;;;;;;5046454;27;114492;-73
2021/03/21 11:58:32;;;;;;;;;17.00;12.00;;;;;;;;5045854;27;112069;-74
2021/03/21 12:01:01;;;;;;;;;13.75;13.25;;;;;;;;5047245;27;113575;-73
2021/03/21 12:03:29;;;;;;;;;13.25;12.00;;;;;;;;5045428;27;114641;-72
2021/03/21 12:05:59;;;;;;;;;18.50;12.00;;;;;;;;5045992;27;112423;-73
2021/03/21 12:08:31;;;;;;;;;15.25;11.25;;;;;;;;5046501;27;113963;-72
2021/03/21 12:10:57;;;;;;;;;12.25;10.00;;;;;;;;5045472;27;114083;-74
2021/03/21 12:13:29;;;;;;;;;11.50;9.75;;;;;;;;5048663;27;112287;-71
2021/03/21 12:15:56;;;;;;;;;14.00;10.25;;;;;;;;5044131;27;114176;-72
2021/03/21 12:18:24;;;;;;;;;11.75;11.75;;;;;;;;5043919;27;111934;-73
2021/03/21 12:20:51;;;;;;;;;11.50;11.50;;;;;;;;5045720;27;113526;-73
2021/03/21 12:23:33;;;;;;;;;11.00;11.00;;;;;;;;5042432;27;114438;-73
2021/03/21 12:26:08;;;;;;;;;14.75;13.50;;;;;;;;5044244;27;112208;-73
2021/03/21 12:28:35;;;;;;;;;11.00;11.00;;;;;;;;5043739;27;113359;-72
2021/03/21 12:31:04;;;;;;;;;11.25;10.00;;;;;;;;5045096;27;114006;-74
2021/03/21 12:33:33;;;;;;;;;13.00;11.00;;;;;;;;5043883;27;112079;-73
2021/03/21 12:36:17;;;;;;;;;13.00;10.00;;;;;;;;5049165;27;114092;-72
2021/03/21 12:38:46;;;;;;;;;13.75;10.25;;;;;;;;5042720;27;112046;-72
2021/03/21 12:41:23;;;;;;;;;11.67;10.33;;;;;;;;5045500;27;113606;-74
2021/03/21 12:44:04;;;;;;;;;10.25;9.25;;;;;;;;5043954;27;114142;-74
2021/03/21 12:46:40;;;;;;;;;10.67;10.67;;;;;;;;5043386;27;111954;-72
2021/03/21 12:49:11;;;;;;;;;9.00;9.00;;;;;;;;5042246;27;114189;-75
2021/03/21 12:51:37;;;;;;;;;9.67;8.67;;;;;;;;5041706;27;113414;-72
2021/03/21 12:54:04;;;;;;;;;4.00;4.00;;;;;;;;5045271;27;112346;-72
2021/03/21 12:56:30;;;;;;;;;12.75;12.75;;;;;;;;5043753;27;113960;-72
2021/03/21 12:58:56;;;;;;;;;16.67;13.00;;;;;;;;5047860;27;114098;-73
2021/03/21 13:01:22;;;;;;;;;11.33;11.33;;;;;;;;5042665;27;114704;-73
2021/03/21 13:03:49;;;;;;;;;10.25;10.25;;;;;;;;5044008;27;114112;-73
2021/03/21 13:06:16;;;;;;;;;12.67;12.00;;;;;;;;5048200;27;112281;-73
2021/03/21 13:08:42;;;;;;;;;13.67;12.33;;;;;;;;5043925;27;113463;-73
2021/03/21 13:11:09;;;;;;;;;10.33;9.00;;;;;;;;5046939;27;114093;-73
2021/03/21 13:13:36;;;;;;;;;12.33;10.33;;;;;;;;5048425;27;112492;-72
2021/03/21 13:16:03;;;;;;;;;12.00;12.00;;;;;;;;5045941;27;113643;-73
2021/03/21 13:18:30;;;;;;;;;12.33;11.00;;;;;;;;5048375;27;115035;-71
2021/03/21 13:20:58;;;;;;;;;13.00;9.50;;;;;;;;5051007;27;111885;-73
2021/03/21 13:23:25;;;;;;;;;10.33;9.00;;;;;;;;5047088;27;114183;-72
2021/03/21 13:25:51;;;;;;;;;10.33;9.00;;;;;;;;5047682;27;112290;-72
2021/03/21 13:28:18;;;;;;;;;9.00;8.67;;;;;;;;5045575;27;113952;-71
2021/03/21 13:30:45;;;;;;;;;6.50;6.00;;;;;;;;5048009;27;114096;-74
2021/03/21 13:33:14;;;;;;;;;7.00;7.00;;;;;;;;5045357;27;112144;-70
2021/03/21 13:35:40;;;;;;;;;4.50;4.50;;;;;;;;5049638;27;113632;-72
2021/03/21 13:38:06;;;;;;;;;5.00;5.00;;;;;;;;5045690;27;114300;-74
2021/03/21 13:40:34;;;;;;;;;5.75;5.75;;;;;;;;5052474;27;111940;-74
2021/03/21 13:43:01;;;;;;;;;4.50;4.00;;;;;;;;5045759;27;114858;-72
2021/03/21 13:45:29;;;;;;;;;6.00;5.00;;;;;;;;5046958;27;111888;-73
2021/03/21 13:47:55;;;;;;;;;10.50;5.50;;;;;;;;5047420;27;113672;-73
2021/03/21 13:50:21;;;;;;;;;8.00;5.50;;;;;;;;5046064;27;113934;-73
2021/03/21 13:52:47;;;;;;;;;8.00;8.00;;;;;;;;5047404;27;112086;-74
2021/03/21 13:55:19;;;;;;;;;8.50;6.00;;;;;;;;5045268;27;113797;-71
2021/03/21 13:57:46;;;;;;;;;8.25;7.50;;;;;;;;5047288;27;114153;-71
2021/03/21 14:00:12;;;;;;;;;8.00;8.00;;;;;;;;5044794;27;111949;-70
2021/03/21 14:02:38;;;;;;;;;5.75;4.00;;;;;;;;5052010;27;113097;-71
2021/03/21 14:05:05;;;;;;;;;6.00;6.00;;;;;;;;5044436;27;112037;-69
2021/03/21 14:07:32;;;;;;;;;8.00;6.00;;;;;;;;5048466;27;113811;-74
2021/03/21 14:09:58;;;;;;;;;5.75;4.75;;;;;;;;5045368;27;113500;-70
2021/03/21 14:12:24;;;;;;;;;9.00;6.00;;;;;;;;5046224;27;112230;-71
2021/03/21 14:14:52;;;;;;;;;5.50;5.00;;;;;;;;5046389;27;113171;-71
2021/03/21 14:17:18;;;;;;;;;9.00;7.00;;;;;;;;5044735;27;114169;-69
2021/03/21 14:19:44;;;;;;;;;5.50;4.75;;;;;;;;5048291;27;111875;-69
2021/03/21 14:22:10;;;;;;;;;8.50;6.00;;;;;;;;5043791;27;114391;-69
2021/03/21 14:24:36;;;;;;;;;7.25;5.75;;;;;;;;5051905;27;114307;-70
2021/03/21 14:27:02;;;;;;;;;8.00;6.00;;;;;;;;5045365;27;114159;-70
2021/03/21 14:29:28;;;;;;;;;7.25;7.25;;;;;;;;5046565;27;116036;-69
2021/03/21 14:31:55;;;;;;;;;5.00;5.00;;;;;;;;5046364;27;113030;-70
2021/03/21 14:34:22;;;;;;;;;6.00;6.00;;;;;;;;5045928;27;113585;-69
2021/03/21 14:36:48;;;;;;;;;6.00;6.00;;;;;;;;5046998;27;114022;-70